createdAt,value
2022-11-16T00:00:49.691Z,99317.31
2022-11-16T00:02:52.794Z,99315.63
2022-11-16T00:04:57.002Z,99319.91
2022-11-16T00:07:02.624Z,99313.03
2022-11-16T00:09:23.873Z,99313.00
2022-11-16T00:11:26.757Z,99318.22
2022-11-16T00:13:29.515Z,99317.41
2022-11-16T00:15:32.257Z,99313.91
2022-11-16T00:17:35.044Z,99314.78
2022-11-16T00:19:37.839Z,99322.56
2022-11-16T00:21:42.425Z,99314.75
2022-11-16T00:23:45.219Z,99319.94
2022-11-16T00:25:47.990Z,99312.16
2022-11-16T00:27:51.427Z,99317.41
2022-11-16T00:29:54.195Z,99319.09
2022-11-16T00:31:57.098Z,99319.09
2022-11-16T00:33:59.860Z,99305.22
2022-11-16T00:36:05.067Z,99309.59
2022-11-16T00:38:09.214Z,99306.16
2022-11-16T00:40:13.494Z,99307.94
2022-11-16T00:42:16.282Z,99303.59
2022-11-16T00:44:19.381Z,99302.69
2022-11-16T00:46:22.605Z,99301.88
2022-11-16T00:48:28.196Z,99296.69
2022-11-16T00:50:31.110Z,99297.50
2022-11-16T00:52:34.853Z,99292.28
2022-11-16T00:54:39.255Z,99289.72
2022-11-16T00:56:42.355Z,99287.97
2022-11-16T00:58:45.175Z,99289.72
2022-11-16T01:00:48.255Z,99286.28
2022-11-16T01:02:52.470Z,99291.47
2022-11-16T01:04:55.220Z,99292.38
2022-11-16T01:06:58.081Z,99288.88
2022-11-16T01:09:01.306Z,99289.75
2022-11-16T01:11:20.248Z,99277.56
2022-11-16T01:13:23.021Z,99280.16
2022-11-16T01:15:27.712Z,99279.31
2022-11-16T01:17:30.533Z,99272.31
2022-11-16T01:19:33.303Z,99275.84
2022-11-16T01:21:36.413Z,99273.22
2022-11-16T01:23:39.282Z,99277.50
2022-11-16T01:25:42.357Z,99271.47
2022-11-16T01:27:46.832Z,99275.81
2022-11-16T01:29:56.303Z,99274.97
2022-11-16T01:31:59.893Z,99278.44
2022-11-16T01:34:03.058Z,99282.78
2022-11-16T01:36:14.518Z,99281.06
2022-11-16T01:38:18.294Z,99285.44
2022-11-16T01:40:21.094Z,99278.41
2022-11-16T01:42:27.132Z,99277.56
2022-11-16T01:45:03.732Z,99278.47
2022-11-16T01:47:10.878Z,99267.16
2022-11-16T01:49:18.429Z,99269.75
2022-11-16T01:51:22.682Z,99268.91
2022-11-16T01:53:26.843Z,99272.41
2022-11-16T01:55:34.810Z,99268.06
2022-11-16T01:57:47.434Z,99262.84
2022-11-16T02:00:12.910Z,99272.38
2022-11-16T02:02:27.313Z,99263.72
2022-11-16T02:04:30.615Z,99263.72
2022-11-16T02:06:57.919Z,99268.91
2022-11-16T02:09:38.215Z,99258.44
2022-11-16T02:11:58.552Z,99267.19
2022-11-16T02:14:12.551Z,99261.97
2022-11-16T02:16:27.562Z,99255.88
2022-11-16T02:18:39.236Z,99260.28
2022-11-16T02:21:02.005Z,99264.59
2022-11-16T02:23:35.246Z,99271.59
2022-11-16T02:25:47.303Z,99268.09
2022-11-16T02:28:10.599Z,99269.00
2022-11-16T02:30:15.171Z,99265.44
2022-11-16T02:32:26.231Z,99265.44
2022-11-16T02:34:34.313Z,99257.69
2022-11-16T02:36:41.504Z,99255.06
2022-11-16T02:38:49.477Z,99262.06
2022-11-16T02:40:57.876Z,99265.56
2022-11-16T02:43:08.711Z,99270.75
2022-11-16T02:45:18.304Z,99269.84
2022-11-16T02:47:24.564Z,99271.59
2022-11-16T02:49:30.540Z,99282.09
2022-11-16T02:51:35.897Z,99284.69
2022-11-16T02:53:43.142Z,99275.16
2022-11-16T02:55:47.802Z,99281.19
2022-11-16T02:57:56.563Z,99266.38
2022-11-16T03:00:02.314Z,99255.91
2022-11-16T03:02:22.431Z,99254.28
2022-11-16T03:04:30.293Z,99247.22
2022-11-16T03:06:36.061Z,99241.25
2022-11-16T03:08:42.046Z,99232.53
2022-11-16T03:11:09.641Z,99238.63
2022-11-16T03:13:15.931Z,99234.31
2022-11-16T03:15:19.372Z,99236.00
2022-11-16T03:17:28.969Z,99241.22
2022-11-16T03:19:37.064Z,99232.41
2022-11-16T03:21:44.970Z,99231.66
2022-11-16T03:23:48.883Z,99229.94
2022-11-16T03:25:53.647Z,99231.69
2022-11-16T03:28:02.732Z,99236.91
2022-11-16T03:30:12.437Z,99249.97
2022-11-16T03:32:24.857Z,99256.91
2022-11-16T03:34:32.974Z,99260.28
2022-11-16T03:36:38.651Z,99267.28
2022-11-16T03:38:45.113Z,99276.84
2022-11-16T03:40:51.674Z,99267.13
2022-11-16T03:42:56.235Z,99259.44
2022-11-16T03:45:01.290Z,99263.81
2022-11-16T03:47:04.067Z,99273.44
2022-11-16T03:49:08.411Z,99287.31
2022-11-16T03:51:13.537Z,99277.81
2022-11-16T03:53:16.938Z,99253.38
2022-11-16T03:55:20.123Z,99260.34
2022-11-16T03:57:23.192Z,99258.66
2022-11-16T03:59:30.544Z,99255.16
2022-11-16T04:01:34.001Z,99256.09
2022-11-16T04:03:36.861Z,99252.56
2022-11-16T04:05:58.635Z,99240.31
2022-11-16T04:08:19.122Z,99243.91
2022-11-16T04:10:39.520Z,99270.06
2022-11-16T04:13:02.415Z,99272.63
2022-11-16T04:15:28.079Z,99248.31
2022-11-16T04:18:02.563Z,99264.94
2022-11-16T04:20:23.660Z,99288.38
2022-11-16T04:22:49.960Z,99283.09
2022-11-16T04:24:57.024Z,99270.84
2022-11-16T04:27:21.879Z,99264.81
2022-11-16T04:29:25.693Z,99267.41
2022-11-16T04:31:46.177Z,99284.84
2022-11-16T04:34:08.253Z,99289.16
2022-11-16T04:36:29.341Z,99285.72
2022-11-16T04:38:33.830Z,99288.25
2022-11-16T04:40:37.026Z,99295.22
2022-11-16T04:42:38.942Z,99287.41
2022-11-16T04:44:59.732Z,99285.69
2022-11-16T04:47:07.839Z,99287.41
2022-11-16T04:49:13.207Z,99288.34
2022-11-16T04:51:15.987Z,99290.03
2022-11-16T04:53:20.292Z,99290.00
2022-11-16T04:55:30.219Z,99286.50
2022-11-16T04:57:34.081Z,99280.34
2022-11-16T04:59:37.027Z,99283.00
2022-11-16T05:01:57.634Z,99279.53
2022-11-16T05:04:00.686Z,99282.97
2022-11-16T05:06:03.534Z,99276.94
2022-11-16T05:08:06.483Z,99288.22
2022-11-16T05:10:10.342Z,99285.59
2022-11-16T05:12:18.959Z,99296.03
2022-11-16T05:14:23.350Z,99294.31
2022-11-16T05:16:26.967Z,99291.69
2022-11-16T05:18:30.009Z,99293.34
2022-11-16T05:20:50.849Z,99303.84
2022-11-16T05:22:54.902Z,99296.97
2022-11-16T05:24:58.742Z,99303.03
2022-11-16T05:27:02.312Z,99301.25
2022-11-16T05:29:06.759Z,99294.28
2022-11-16T05:31:09.521Z,99300.38
2022-11-16T05:33:15.195Z,99295.19
2022-11-16T05:35:18.043Z,99299.50
2022-11-16T05:37:21.841Z,99298.59
2022-11-16T05:39:26.748Z,99288.25
2022-11-16T05:41:30.249Z,99303.94
2022-11-16T05:43:34.587Z,99302.16
2022-11-16T05:45:55.691Z,99303.06
2022-11-16T05:47:58.632Z,99300.47
2022-11-16T05:50:02.544Z,99300.41
2022-11-16T05:52:09.850Z,99300.34
2022-11-16T05:54:16.584Z,99300.47
2022-11-16T05:56:22.623Z,99301.38
2022-11-16T05:58:26.143Z,99302.19
2022-11-16T06:00:29.648Z,99303.91
2022-11-16T06:02:34.774Z,99303.06
2022-11-16T06:04:37.776Z,99299.59
2022-11-16T06:06:41.096Z,99300.47
2022-11-16T06:08:43.936Z,99308.22
2022-11-16T06:10:50.730Z,99303.94
2022-11-16T06:12:53.577Z,99307.31
2022-11-16T06:14:56.459Z,99311.59
2022-11-16T06:16:59.291Z,99307.25
2022-11-16T06:19:03.570Z,99303.78
2022-11-16T06:21:07.609Z,99310.75
2022-11-16T06:23:10.427Z,99313.28
2022-11-16T06:25:13.747Z,99321.09
2022-11-16T06:27:19.382Z,99320.31
2022-11-16T06:29:22.292Z,99325.53
2022-11-16T06:31:26.950Z,99323.00
2022-11-16T06:33:33.589Z,99327.34
2022-11-16T06:35:40.819Z,99332.50
2022-11-16T06:37:44.131Z,99330.75
2022-11-16T06:39:46.982Z,99335.16
2022-11-16T06:41:49.787Z,99336.00
2022-11-16T06:43:52.675Z,99332.50
2022-11-16T06:46:00.221Z,99335.16
2022-11-16T06:48:03.070Z,99334.28
2022-11-16T06:50:06.737Z,99349.00
2022-11-16T06:52:11.522Z,99341.25
2022-11-16T06:54:14.328Z,99349.94
2022-11-16T06:56:17.815Z,99351.72
2022-11-16T06:58:26.649Z,99349.97
2022-11-16T07:00:29.422Z,99345.59
2022-11-16T07:02:32.682Z,99357.75
2022-11-16T07:04:36.480Z,99362.13
2022-11-16T07:06:40.767Z,99353.47
2022-11-16T07:08:46.068Z,99357.78
2022-11-16T07:13:39.794Z,99354.34
2022-11-16T07:15:44.850Z,99359.53
2022-11-16T07:17:47.745Z,99363.91
2022-11-16T07:19:50.583Z,99364.75
2022-11-16T07:21:53.393Z,99365.66
2022-11-16T07:23:57.805Z,99362.13
2022-11-16T07:26:01.137Z,99369.03
2022-11-16T07:28:12.060Z,99368.16
2022-11-16T07:30:15.684Z,99362.94
2022-11-16T07:32:30.114Z,99371.63
2022-11-16T07:34:50.258Z,99377.69
2022-11-16T07:36:53.531Z,99375.91
2022-11-16T07:38:58.464Z,99381.13
2022-11-16T07:41:02.264Z,99383.75
2022-11-16T07:43:06.753Z,99399.38
2022-11-16T07:45:30.186Z,99402.84
2022-11-16T07:47:37.746Z,99407.25
2022-11-16T07:49:42.565Z,99402.91
2022-11-16T07:51:59.802Z,99408.06
2022-11-16T07:54:22.699Z,99412.41
2022-11-16T07:56:26.423Z,99415.00
2022-11-16T07:58:31.655Z,99411.53
2022-11-16T08:00:34.763Z,99415.81
2022-11-16T08:02:47.330Z,99424.44
2022-11-16T08:04:54.611Z,99419.22
2022-11-16T08:07:01.400Z,99422.66
2022-11-16T08:09:09.649Z,99432.13
2022-11-16T08:11:15.037Z,99422.56
2022-11-16T08:13:18.279Z,99432.19
2022-11-16T08:15:21.050Z,99438.28
2022-11-16T08:17:23.992Z,99433.00
2022-11-16T08:19:27.620Z,99435.63
2022-11-16T08:21:30.764Z,99430.38
2022-11-16T08:23:34.897Z,99422.53
2022-11-16T08:25:38.928Z,99419.19
2022-11-16T08:27:43.495Z,99421.78
2022-11-16T08:29:47.521Z,99430.44
2022-11-16T08:31:50.396Z,99426.97
2022-11-16T08:33:56.462Z,99423.47
2022-11-16T08:36:06.187Z,99433.00
2022-11-16T08:38:12.450Z,99435.66
2022-11-16T08:40:15.970Z,99438.25
2022-11-16T08:42:19.569Z,99437.31
2022-11-16T08:44:26.003Z,99434.66
2022-11-16T08:46:31.309Z,99425.13
2022-11-16T08:48:44.537Z,99431.19
2022-11-16T08:51:15.390Z,99428.63
2022-11-16T08:53:10.668Z,99445.97
2022-11-16T08:55:13.925Z,99442.41
2022-11-16T08:57:17.456Z,99439.84
2022-11-16T08:59:23.202Z,99442.41
2022-11-16T09:01:31.354Z,99443.25
2022-11-16T09:03:34.264Z,99436.31
2022-11-16T09:05:37.073Z,99435.41
2022-11-16T09:07:40.698Z,99434.56
2022-11-16T09:09:43.567Z,99439.81
2022-11-16T09:11:46.388Z,99445.00
2022-11-16T09:13:50.980Z,99449.31
2022-11-16T09:15:57.116Z,99449.25
2022-11-16T09:18:01.260Z,99457.88
2022-11-16T09:20:04.828Z,99460.44
2022-11-16T09:22:07.608Z,99456.91
2022-11-16T09:27:22.370Z,99456.88
2022-11-16T09:29:27.501Z,99452.53
2022-11-16T09:31:34.596Z,99448.97
2022-11-16T09:33:38.888Z,99438.53
2022-11-16T09:35:42.022Z,99441.16
2022-11-16T09:37:44.932Z,99445.47
2022-11-16T09:39:47.800Z,99446.28
2022-11-16T09:42:08.365Z,99445.34
2022-11-16T09:44:21.126Z,99443.69
2022-11-16T09:46:28.000Z,99446.31
2022-11-16T09:48:36.609Z,99448.03
2022-11-16T09:50:51.815Z,99449.81
2022-11-16T09:52:56.482Z,99449.84
2022-11-16T09:55:03.463Z,99462.84
2022-11-16T09:57:12.748Z,99455.81
2022-11-16T09:59:23.835Z,99461.78
2022-11-16T10:01:30.309Z,99456.56
2022-11-16T10:03:41.276Z,99459.13
2022-11-16T10:05:58.133Z,99451.31
2022-11-16T10:08:10.596Z,99458.97
2022-11-16T10:10:14.718Z,99461.72
2022-11-16T10:12:23.075Z,99459.09
2022-11-16T10:14:51.948Z,99454.66
2022-11-16T10:17:03.218Z,99459.03
2022-11-16T10:19:15.606Z,99449.44
2022-11-16T10:21:29.113Z,99436.38
2022-11-16T10:23:42.943Z,99439.88
2022-11-16T10:25:47.347Z,99431.97
2022-11-16T10:28:16.466Z,99429.34
2022-11-16T10:30:21.330Z,99432.75
2022-11-16T10:32:28.167Z,99425.94
2022-11-16T10:34:39.173Z,99432.84
2022-11-16T10:36:43.501Z,99442.31
2022-11-16T10:38:46.468Z,99428.38
2022-11-16T10:40:55.713Z,99426.50
2022-11-16T10:43:06.749Z,99428.13
2022-11-16T10:45:20.515Z,99422.94
2022-11-16T10:47:30.804Z,99419.53
2022-11-16T10:49:41.846Z,99412.53
2022-11-16T10:51:46.004Z,99415.19
2022-11-16T10:53:49.487Z,99409.19
2022-11-16T10:56:07.389Z,99413.47
2022-11-16T10:58:10.243Z,99410.03
2022-11-16T11:00:34.943Z,99413.50
2022-11-16T11:02:39.134Z,99407.50
2022-11-16T11:04:41.945Z,99405.94
2022-11-16T11:06:46.903Z,99402.44
2022-11-16T11:08:50.249Z,99403.22
2022-11-16T11:11:01.683Z,99400.47
2022-11-16T11:13:26.107Z,99396.13
2022-11-16T11:15:28.936Z,99392.56
2022-11-16T11:17:33.657Z,99390.69
2022-11-16T11:19:36.335Z,99389.91
2022-11-16T11:21:39.185Z,99390.75
2022-11-16T11:23:46.326Z,99393.28
2022-11-16T11:25:55.055Z,99388.84
2022-11-16T11:28:06.347Z,99393.16
2022-11-16T11:30:21.017Z,99392.22
2022-11-16T11:32:27.207Z,99386.91
2022-11-16T11:34:33.057Z,99391.34
2022-11-16T11:36:40.503Z,99388.75
2022-11-16T11:38:58.987Z,99383.50
2022-11-16T11:41:05.078Z,99388.94
2022-11-16T11:43:23.239Z,99387.16
2022-11-16T11:45:37.065Z,99383.72
2022-11-16T11:47:57.948Z,99385.41
2022-11-16T11:50:07.529Z,99378.38
2022-11-16T11:52:20.560Z,99371.22
2022-11-16T11:54:29.209Z,99370.28
2022-11-16T11:56:34.123Z,99366.91
2022-11-16T11:58:40.555Z,99363.34
2022-11-16T12:00:58.867Z,99364.88
2022-11-16T12:03:31.436Z,99362.22
2022-11-16T12:06:02.771Z,99361.22
2022-11-16T12:08:22.515Z,99358.63
2022-11-16T12:10:36.741Z,99355.91
2022-11-16T12:12:51.960Z,99356.75
2022-11-16T12:15:05.626Z,99350.09
2022-11-16T12:17:15.003Z,99353.72
2022-11-16T12:19:42.543Z,99344.97
2022-11-16T12:22:02.040Z,99341.44
2022-11-16T12:24:28.155Z,99339.75
2022-11-16T12:26:46.011Z,99337.03
2022-11-16T12:28:59.822Z,99336.97
2022-11-16T12:31:20.570Z,99340.34
2022-11-16T12:33:33.164Z,99343.13
2022-11-16T12:35:52.844Z,99336.94
2022-11-16T12:38:04.477Z,99331.69
2022-11-16T12:40:24.235Z,99332.41
2022-11-16T12:42:40.341Z,99333.31
2022-11-16T12:45:05.883Z,99329.13
2022-11-16T12:47:22.714Z,99330.72
2022-11-16T12:49:43.313Z,99320.41
2022-11-16T12:51:58.728Z,99315.03
2022-11-16T12:54:29.298Z,99323.88
2022-11-16T12:56:48.688Z,99316.97
2022-11-16T12:59:17.942Z,99312.63
2022-11-16T13:01:33.560Z,99308.34
2022-11-16T13:03:47.731Z,99307.38
2022-11-16T13:05:58.896Z,99302.91
2022-11-16T13:08:06.436Z,99297.69
2022-11-16T13:10:16.945Z,99301.13
2022-11-16T13:12:24.283Z,99297.63
2022-11-16T13:14:34.237Z,99289.91
2022-11-16T13:16:39.835Z,99280.31
2022-11-16T13:18:44.081Z,99287.38
2022-11-16T13:20:52.276Z,99283.03
2022-11-16T13:23:03.582Z,99281.22
2022-11-16T13:25:17.120Z,99282.94
2022-11-16T13:27:32.252Z,99281.31
2022-11-16T13:29:41.809Z,99280.56
2022-11-16T13:31:53.785Z,99273.47
2022-11-16T13:34:01.623Z,99273.25
2022-11-16T13:36:39.754Z,99274.22
2022-11-16T13:38:52.059Z,99269.84
2022-11-16T13:40:54.856Z,99268.16
2022-11-16T13:43:17.604Z,99263.78
2022-11-16T13:45:24.093Z,99269.91
2022-11-16T13:47:30.336Z,99267.91
2022-11-16T13:49:36.649Z,99266.13
2022-11-16T13:51:39.505Z,99261.78
2022-11-16T13:54:44.534Z,99260.88
2022-11-16T13:56:13.779Z,99258.13
2022-11-16T13:58:22.219Z,99260.91
2022-11-16T14:00:30.523Z,99259.88
2022-11-16T14:02:36.199Z,99254.78
2022-11-16T14:04:43.348Z,99254.13
2022-11-16T14:07:00.743Z,99256.78
2022-11-16T14:09:03.590Z,99254.22
2022-11-16T14:11:34.153Z,99252.50
2022-11-16T14:13:38.910Z,99254.34
2022-11-16T14:15:42.891Z,99251.84
2022-11-16T14:17:57.975Z,99259.81
2022-11-16T14:20:00.824Z,99254.66
2022-11-16T14:22:11.359Z,99252.84
2022-11-16T14:24:26.335Z,99248.53
2022-11-16T14:26:44.193Z,99248.72
2022-11-16T14:29:03.848Z,99249.59
2022-11-16T14:31:16.921Z,99245.22
2022-11-16T14:33:30.750Z,99241.66
2022-11-16T14:35:36.490Z,99244.22
2022-11-16T14:37:42.687Z,99242.28
2022-11-16T14:39:46.019Z,99237.00
2022-11-16T14:41:49.007Z,99240.44
2022-11-16T14:43:54.765Z,99243.97
2022-11-16T14:46:01.320Z,99237.72
2022-11-16T14:48:14.123Z,99243.66
2022-11-16T14:50:22.331Z,99247.31
2022-11-16T14:52:32.827Z,99243.63
2022-11-16T14:54:39.877Z,99253.41
2022-11-16T14:56:57.194Z,99250.78
2022-11-16T14:59:02.290Z,99238.63
2022-11-16T15:01:07.912Z,99244.72
2022-11-16T15:03:12.933Z,99250.84
2022-11-16T15:05:17.776Z,99239.84
2022-11-16T15:07:23.416Z,99233.75
2022-11-16T15:09:29.862Z,99230.47
2022-11-16T15:11:52.431Z,99226.19
2022-11-16T15:13:55.785Z,99230.59
2022-11-16T15:16:15.792Z,99231.50
2022-11-16T15:18:23.117Z,99228.00
2022-11-16T15:20:28.339Z,99224.56
2022-11-16T15:22:40.057Z,99216.78
2022-11-16T15:24:42.842Z,99210.81
2022-11-16T15:26:45.624Z,99207.41
2022-11-16T15:28:50.270Z,99207.44
2022-11-16T15:30:55.464Z,99206.59
2022-11-16T15:32:58.483Z,99204.03
2022-11-16T15:35:05.537Z,99196.25
2022-11-16T15:37:12.298Z,99205.00
2022-11-16T15:39:18.578Z,99206.81
2022-11-16T15:41:22.859Z,99197.34
2022-11-16T15:43:29.632Z,99203.50
2022-11-16T15:45:33.212Z,99207.91
2022-11-16T15:47:37.508Z,99204.50
2022-11-16T15:49:42.259Z,99201.06
2022-11-16T15:51:46.198Z,99203.84
2022-11-16T15:53:50.912Z,99207.34
2022-11-16T15:55:53.794Z,99204.00
2022-11-16T15:58:07.333Z,99204.00
2022-11-16T16:00:23.010Z,99191.91
2022-11-16T16:02:28.367Z,99184.06
2022-11-16T16:04:31.389Z,99178.91
2022-11-16T16:06:46.949Z,99172.88
2022-11-16T16:09:05.045Z,99162.63
2022-11-16T16:11:12.282Z,99169.63
2022-11-16T16:13:26.591Z,99169.66
2022-11-16T16:15:33.737Z,99185.38
2022-11-16T16:17:36.615Z,99175.84
2022-11-16T16:19:42.433Z,99171.56
2022-11-16T16:21:47.516Z,99177.69
2022-11-16T16:23:52.109Z,99185.53
2022-11-16T16:25:54.913Z,99192.53
2022-11-16T16:27:58.226Z,99192.56
2022-11-16T16:30:06.029Z,99179.53
2022-11-16T16:32:14.388Z,99180.44
2022-11-16T16:34:17.830Z,99186.56
2022-11-16T16:36:20.615Z,99175.31
2022-11-16T16:38:24.819Z,99177.88
2022-11-16T16:40:27.961Z,99171.03
2022-11-16T16:42:30.765Z,99169.38
2022-11-16T16:44:33.517Z,99174.59
2022-11-16T16:46:36.288Z,99172.00
2022-11-16T16:48:44.359Z,99166.78
2022-11-16T16:50:47.604Z,99159.00
2022-11-16T16:52:50.415Z,99156.44
2022-11-16T16:54:54.592Z,99161.63
2022-11-16T16:56:58.301Z,99160.75
2022-11-16T16:59:01.047Z,99158.19
2022-11-16T17:01:05.008Z,99160.72
2022-11-16T17:03:08.255Z,99157.22
2022-11-16T17:05:11.075Z,99156.34
2022-11-16T17:07:14.040Z,99142.41
2022-11-16T17:09:16.971Z,99145.03
2022-11-16T17:11:21.213Z,99156.28
2022-11-16T17:13:24.079Z,99148.50
2022-11-16T17:15:26.797Z,99149.34
2022-11-16T17:17:29.583Z,99145.88
2022-11-16T17:19:33.069Z,99142.41
2022-11-16T17:21:35.924Z,99138.97
2022-11-16T17:23:38.758Z,99132.00
2022-11-16T17:25:41.562Z,99130.28
2022-11-16T17:27:45.663Z,99128.50
2022-11-16T17:29:48.459Z,99126.81
2022-11-16T17:31:51.593Z,99133.72
2022-11-16T17:33:54.628Z,99133.72
2022-11-16T17:35:58.786Z,99125.91
2022-11-16T17:38:01.548Z,99124.19
2022-11-16T17:40:04.552Z,99122.38
2022-11-16T17:42:07.409Z,99124.91
2022-11-16T17:44:16.017Z,99122.28
2022-11-16T17:46:23.385Z,99109.28
2022-11-16T17:48:26.006Z,99116.31
2022-11-16T17:50:28.769Z,99113.59
2022-11-16T17:52:31.539Z,99106.63
2022-11-16T17:54:34.307Z,99101.34
2022-11-16T17:56:37.584Z,99096.16
2022-11-16T17:58:40.475Z,99092.72
2022-11-16T18:00:44.645Z,99093.63
2022-11-16T18:02:47.564Z,99091.88
2022-11-16T18:04:51.381Z,99088.41
2022-11-16T18:06:55.189Z,99090.19
2022-11-16T18:08:58.172Z,99085.03
2022-11-16T18:11:05.345Z,99091.97
2022-11-16T18:13:08.537Z,99090.28
2022-11-16T18:15:27.976Z,99085.91
2022-11-16T18:17:34.744Z,99083.31
2022-11-16T18:19:37.553Z,99085.09
2022-11-16T18:21:41.571Z,99077.31
2022-11-16T18:23:44.611Z,99076.44
2022-11-16T18:25:47.374Z,99080.81
2022-11-16T18:27:52.256Z,99072.97
2022-11-16T18:29:55.015Z,99076.44
2022-11-16T18:31:57.874Z,99074.72
2022-11-16T18:34:03.046Z,99081.56
2022-11-16T18:36:08.012Z,99079.00
2022-11-16T18:38:12.944Z,99085.97
2022-11-16T18:40:15.882Z,99078.13
2022-11-16T18:42:18.655Z,99072.81
2022-11-16T18:44:21.531Z,99068.53
2022-11-16T18:46:26.340Z,99064.16
2022-11-16T18:48:29.073Z,99062.53
2022-11-16T18:50:33.218Z,99065.09
2022-11-16T18:52:36.017Z,99059.84
2022-11-16T18:54:38.992Z,99059.78
2022-11-16T18:56:41.881Z,99059.78
2022-11-16T18:58:53.195Z,99060.72
2022-11-16T19:01:01.379Z,99056.34
2022-11-16T19:03:09.910Z,99061.53
2022-11-16T19:05:13.965Z,99058.09
2022-11-16T19:07:18.154Z,99054.56
2022-11-16T19:09:21.000Z,99050.19
2022-11-16T19:11:24.829Z,99051.84
2022-11-16T19:13:28.362Z,99044.09
2022-11-16T19:15:31.206Z,99042.34
2022-11-16T19:17:59.604Z,99043.16
2022-11-16T19:20:07.306Z,99040.66
2022-11-16T19:22:10.141Z,99040.59
2022-11-16T19:24:14.312Z,99049.31
2022-11-16T19:26:18.602Z,99049.31
2022-11-16T19:28:21.353Z,99042.34
2022-11-16T19:30:24.133Z,99049.34
2022-11-16T19:32:27.209Z,99037.09
2022-11-16T19:34:33.332Z,99038.88
2022-11-16T19:36:37.462Z,99033.69
2022-11-16T19:38:40.892Z,99041.53
2022-11-16T19:40:44.998Z,99043.28
2022-11-16T19:42:47.818Z,99048.47
2022-11-16T19:44:50.651Z,99056.28
2022-11-16T19:46:54.410Z,99059.78
2022-11-16T19:48:58.111Z,99049.34
2022-11-16T19:51:08.171Z,99050.19
2022-11-16T19:53:11.022Z,99051.97
2022-11-16T19:55:13.847Z,99051.09
2022-11-16T19:57:20.496Z,99045.06
2022-11-16T19:59:23.319Z,99036.38
2022-11-16T20:01:29.242Z,99038.19
2022-11-16T20:03:32.946Z,99033.03
2022-11-16T20:05:35.884Z,99028.72
2022-11-16T20:07:38.894Z,99024.44
2022-11-16T20:09:41.752Z,99023.63
2022-11-16T20:11:44.550Z,99014.13
2022-11-16T20:13:50.161Z,99007.22
2022-11-16T20:15:52.988Z,99004.59
2022-11-16T20:17:55.803Z,99001.97
2022-11-16T20:19:58.591Z,99000.25
2022-11-16T20:22:01.402Z,99005.44
2022-11-16T20:24:07.465Z,99001.22
2022-11-16T20:26:11.988Z,99004.69
2022-11-16T20:28:14.820Z,99011.66
2022-11-16T20:30:19.391Z,99010.78
2022-11-16T20:32:22.268Z,99010.91
2022-11-16T20:34:25.108Z,99006.47
2022-11-16T20:36:30.130Z,98998.66
2022-11-16T20:38:33.647Z,98997.84
2022-11-16T20:40:36.413Z,98995.28
2022-11-16T20:42:39.223Z,98995.28
2022-11-16T20:44:42.016Z,99001.44
2022-11-16T20:46:46.401Z,98991.03
2022-11-16T20:48:49.711Z,98991.88
2022-11-16T20:50:53.661Z,98990.16
2022-11-16T20:52:57.537Z,98987.63
2022-11-16T20:55:00.341Z,98980.69
2022-11-16T20:57:03.129Z,98978.88
2022-11-16T20:59:25.076Z,98978.88
2022-11-16T21:01:31.477Z,98981.41
2022-11-16T21:03:36.327Z,98980.53
2022-11-16T21:05:42.214Z,98981.47
2022-11-16T21:07:45.015Z,98973.63
2022-11-16T21:10:05.404Z,98968.38
2022-11-16T21:12:27.117Z,98972.66
2022-11-16T21:14:30.042Z,98969.19
2022-11-16T21:16:33.435Z,98970.91
2022-11-16T21:18:38.316Z,98967.41
2022-11-16T21:20:40.969Z,98963.22
2022-11-16T21:22:43.850Z,98964.06
2022-11-16T21:24:46.655Z,98955.38
2022-11-16T21:26:49.460Z,98956.22
2022-11-16T21:28:52.741Z,98949.28
2022-11-16T21:30:57.283Z,98956.25
2022-11-16T21:33:00.180Z,98951.91
2022-11-16T21:35:04.652Z,98952.81
2022-11-16T21:37:07.414Z,98961.50
2022-11-16T21:39:10.302Z,98948.47
2022-11-16T21:41:15.049Z,98955.41
2022-11-16T21:43:17.906Z,98945.91
2022-11-16T21:45:20.750Z,98949.41
2022-11-16T21:47:23.532Z,98944.19
2022-11-16T21:49:26.270Z,98945.09
2022-11-16T21:51:30.738Z,98939.03
2022-11-16T21:53:34.565Z,98931.25
2022-11-16T21:55:37.629Z,98936.47
2022-11-16T21:57:40.364Z,98945.09
2022-11-16T21:59:43.554Z,98938.13
2022-11-16T22:02:01.248Z,98932.94
2022-11-16T22:04:21.881Z,98928.63
2022-11-16T22:06:42.156Z,98923.47
2022-11-16T22:08:47.356Z,98932.13
2022-11-16T22:10:51.269Z,98915.66
2022-11-16T22:12:54.306Z,98924.31
2022-11-16T22:14:57.604Z,98923.47
2022-11-16T22:17:00.334Z,98913.88
2022-11-16T22:19:03.174Z,98916.47
2022-11-16T22:21:06.584Z,98919.06
2022-11-16T22:23:09.343Z,98917.38
2022-11-16T22:25:13.960Z,98912.13
2022-11-16T22:27:17.915Z,98913.84
2022-11-16T22:29:20.687Z,98903.44
2022-11-16T22:31:23.577Z,98905.16
2022-11-16T22:33:26.633Z,98903.44
2022-11-16T22:35:29.460Z,98901.72
2022-11-16T22:37:32.242Z,98904.28
2022-11-16T22:39:36.488Z,98904.25
2022-11-16T22:41:40.710Z,98913.81
2022-11-16T22:43:43.597Z,98903.38
2022-11-16T22:45:46.386Z,98899.91
2022-11-16T22:47:53.602Z,98899.09
2022-11-16T22:49:57.579Z,98889.59
2022-11-16T22:52:00.406Z,98884.41
2022-11-16T22:54:05.211Z,98884.41
2022-11-16T22:56:08.790Z,98879.28
2022-11-16T22:58:12.916Z,98870.53
2022-11-16T23:00:16.769Z,98868.69
2022-11-16T23:02:19.614Z,98869.63
2022-11-16T23:04:22.394Z,98868.66
2022-11-16T23:06:25.436Z,98853.97
2022-11-16T23:08:28.819Z,98854.84
2022-11-16T23:10:51.559Z,98858.19
2022-11-16T23:13:12.273Z,98852.28
2022-11-16T23:15:48.332Z,98840.94
2022-11-16T23:17:51.083Z,98845.44
2022-11-16T23:20:17.324Z,98843.63
2022-11-16T23:22:40.149Z,98836.69
2022-11-16T23:25:03.177Z,98841.94
2022-11-16T23:27:31.709Z,98839.25
2022-11-16T23:29:34.520Z,98840.16
2022-11-16T23:31:39.059Z,98839.31
2022-11-16T23:33:47.820Z,98833.09
2022-11-16T23:35:50.653Z,98825.34
2022-11-16T23:37:55.401Z,98814.03
2022-11-16T23:39:58.148Z,98813.09
2022-11-16T23:42:18.741Z,98803.50
2022-11-16T23:44:21.517Z,98802.66
2022-11-16T23:46:24.350Z,98799.31
2022-11-16T23:48:28.467Z,98798.53
2022-11-16T23:50:31.231Z,98778.56
2022-11-16T23:52:33.994Z,98769.94
2022-11-16T23:54:36.855Z,98775.16
2022-11-16T23:56:39.614Z,98776.03
2022-11-16T23:58:42.415Z,98769.06
